Weather observations for the past three days for
Pagosa Springs, Wolf Creek Pass
Metric (Imperial)
Date Time (mdt) Wind (kph) Vis. (km) Weather Sky Cond. Temperature (ºC) Relative Humidity Wind Chill (°C) Heat Index (°C) Pressure Precipitation (cm)
Air Dwpt 6 hour altimeter (cm) sea level (mb) 1 hr 3 hr 6 hr
Max. Min.
04 06:35 SW 17 16.09 Mostly Cloudy BKN007 BKN011 5 5 100% 2 77.67 0.0
04 06:15 SW 17 16.09 Fair CLR 5 5 100% 2 77.67 0.0
04 05:55 SW 17 16.09 Fair CLR 5 5 100% 2 77.67 0.0
04 05:35 W 11 16.09 Partly Cloudy SCT010 SCT014 5 5 100% 3 77.67 0.0
04 05:15 W 17 G 33 16.09 Partly Cloudy SCT012 5 5 100% 2 77.65 0.0
04 04:55 SW 22 G 39 16.09 Fair CLR 5 5 100% 1 77.65 0.0
04 04:35 W 22 G 33 16.09 Fair CLR 6 5 93% 2 77.65 0.0
04 04:15 W 24 G 35 16.09 Fair CLR 6 5 93% 2 77.65 0.0
04 03:55 SW 22 G 33 16.09 Fair CLR 6 4 87% 2 77.65 0.0
04 03:35 SW 22 G 33 16.09 Fair CLR 6 4 87% 2 77.65 0.0
04 03:15 SW 22 G 35 16.09 Fair CLR 6 5 93% 2 77.65 0.0
04 02:55 SW 22 G 31 16.09 Fair CLR 6 4 87% 2 77.67 0.0
04 02:35 SW 20 G 33 16.09 Fair CLR 6 4 87% 3 77.67 0.0
04 02:15 SW 22 G 30 16.09 Fair CLR 6 3 81% 2 77.67 0.0
04 01:55 SW 24 G 33 16.09 Fair CLR 6 3 81% 2 77.7 0.0
04 01:35 SW 26 G 35 16.09 Fair CLR 6 3 81% 2 77.7 0.0
04 01:15 SW 19 16.09 Partly Cloudy SCT044 6 3 81% 3 77.7 0.0
04 00:55 SW 20 G 35 16.09 Partly Cloudy SCT029 6 3 81% 3 77.72 0.0
04 00:35 SW 20 G 33 16.09 Partly Cloudy SCT031 7 2 71% 4 77.72 0.0
04 00:15 SW 24 G 37 16.09 Partly Cloudy SCT031 7 2 71% 4 77.7 0.0
03 23:55 SW 19 G 31 16.09 Fair CLR 7 1 66% 4 77.72 0.0
03 23:35 SW 19 G 30 16.09 Partly Cloudy SCT037 7 1 66% 4 77.72 0.0
03 23:15 SW 15 16.09 Mostly Cloudy BKN037 8 1 62% 6 77.72 0.0
03 22:55 SW 15 G 28 16.09 Partly Cloudy SCT037 8 1 62% 6 77.75 0.0
03 22:15 W 13 16.09 Fair CLR 8 1 62% 6 77.77 0.0
03 21:55 W 15 G 31 16.09 Fair CLR 8 1 62% 6 77.77 0.0
03 21:35 W 17 G 30 16.09 Fair CLR 8 1 62% 6 77.75 0.0
03 21:15 SW 19 16.09 Fair CLR 8 1 62% 5 77.75 0.0
03 20:55 W 17 16.09 Fair CLR 8 0 57% 6 77.75 0.0
03 20:35 SW 17 G 31 16.09 Fair CLR 8 0 57% 6 77.72 0.0
03 20:15 W 17 G 30 16.09 Fair CLR 9 0 54% 7 77.7 0.0
03 19:55 SW 22 G 33 16.09 Fair CLR 10 0 50% 7 77.7 0.0
03 19:35 SW 20 G 37 16.09 Fair CLR 10 0 50% 8 77.7 0.0
03 19:15 SW 30 G 43 16.09 Fair CLR 11 0 47% 77.67 0.0
03 18:55 SW 30 G 50 16.09 Fair CLR 11 0 47% 77.67 0.0
03 18:35 SW 37 G 54 16.09 Fair and Breezy CLR 12 0 44% 77.67 0.0
03 18:15 W 19 G 48 16.09 Fair CLR 13 0 41% 77.7 0.0
03 17:55 SW 33 G 54 16.09 Fair and Breezy CLR 13 0 41% 77.67 0.0
03 17:35 SW 39 G 61 16.09 Fair and Breezy CLR 13 0 41% 77.67 0.0
03 17:15 SW 28 G 50 16.09 Fair CLR 13 1 44% 77.7 0.0
03 16:55 SW 30 G 48 16.09 Partly Cloudy SCT044 SCT049 13 1 44% 77.67 0.0
03 16:35 SW 22 G 57 16.09 Partly Cloudy SCT044 14 2 44% 77.7 0.0
03 16:15 SW 35 G 54 16.09 Partly Cloudy and Breezy SCT044 15 1 39% 77.67 0.0
03 15:55 SW 24 G 43 16.09 Partly Cloudy SCT044 13 2 47% 77.7 0.0
03 15:35 SW 28 G 50 16.09 Partly Cloudy SCT041 SCT048 13 2 47% 77.72 0.0
03 15:15 SW 33 G 57 16.09 Partly Cloudy and Breezy SCT040 13 2 47% 77.7 0.0
03 14:55 SW 30 G 50 16.09 Partly Cloudy SCT043 13 1 44% 77.72 0.0
03 14:35 SW 35 G 56 16.09 Partly Cloudy and Breezy SCT045 13 1 44% 77.72 0.0
03 14:15 SW 31 G 59 16.09 Fair CLR 13 1 44% 77.72 0.0
03 13:55 SW 33 G 57 16.09 Partly Cloudy and Breezy SCT036 12 1 47% 77.72 0.0
03 13:35 SW 33 G 61 16.09 Partly Cloudy and Breezy SCT038 12 1 47% 77.72 0.0
03 13:15 SW 37 G 61 16.09 Fair and Breezy CLR 12 2 51% 77.7 0.0
03 12:55 SW 39 G 59 16.09 Fair and Breezy CLR 11 1 50% 77.72 0.0
03 12:35 SW 43 G 61 16.09 Fair and Windy CLR 11 2 54% 77.72 0.0
03 12:15 SW 50 G 65 16.09 Fair and Windy CLR 11 0 47% 77.72 0.0
03 11:55 SW 31 G 63 16.09 Fair CLR 10 2 58% 7 77.75 0.0
03 11:35 SW 41 G 54 16.09 Fair and Breezy CLR 10 2 58% 6 77.77 0.0
03 11:15 SW 35 G 46 16.09 Partly Cloudy and Breezy SCT028 9 2 62% 5 77.77 0.0
03 10:55 SW 33 G 56 16.09 Partly Cloudy and Breezy SCT028 10 2 58% 7 77.77 0.0
03 10:35 SW 33 G 50 16.09 Fair and Breezy CLR 8 1 62% 4 77.75 0.0
03 10:15 SW 30 G 43 16.09 Fair CLR 8 1 62% 4 77.75 0.0
03 09:55 SW 30 G 52 16.09 Fair CLR 7 1 66% 3 77.72 0.0
03 09:35 SW 31 G 44 16.09 Fair CLR 7 1 66% 3 77.72 0.0
03 09:15 SW 24 G 41 16.09 Fair CLR 6 2 76% 2 77.72 0.0
03 08:55 SW 24 G 35 16.09 Partly Cloudy SCT014 SCT022 6 3 81% 2 77.72 0.0
03 08:35 SW 17 G 37 16.09 Partly Cloudy SCT010 SCT019 5 3 87% 2 77.72 0.0
03 08:15 SW 24 G 37 16.09 Partly Cloudy SCT010 SCT019 5 3 87% 1 77.7 0.0
03 07:55 SW 15 G 28 16.09 Partly Cloudy SCT008 SCT044 4 3 93% 1 77.7 0.0
03 07:35 SW 20 G 33 16.09 Partly Cloudy SCT043 3 3 100% -1 77.67 0.0
03 07:15 SW 22 16.09 Fair CLR 3 3 100% -1 77.65 0.0
03 06:55 SW 22 G 31 16.09 Partly Cloudy SCT010 SCT023 SCT045 3 3 100% -1 77.65 0.0
03 06:35 SW 20 G 35 16.09 Fair CLR 5 3 87% 1 77.65 0.0
03 06:15 SW 26 G 39 16.09 Partly Cloudy SCT021 5 3 87% 1 77.62 0.0
03 05:55 SW 20 G 33 16.09 Partly Cloudy SCT023 SCT100 5 3 87% 1 77.62 0.0
03 05:35 SW 19 G 35 16.09 Partly Cloudy SCT023 5 3 87% 2 77.65 0.0
03 05:15 SW 19 G 26 16.09 Partly Cloudy SCT022 5 3 87% 2 77.65 0.0
03 04:55 SW 13 G 26 16.09 Partly Cloudy SCT022 5 3 87% 2 77.67 0.0
03 04:35 SW 13 G 37 16.09 Partly Cloudy SCT020 SCT028 5 3 87% 2 77.67 0.0
03 04:15 SW 17 G 31 16.09 Fair CLR 5 2 81% 2 77.67 0.0
03 03:55 SW 20 G 30 16.09 Fair CLR 5 2 81% 1 77.67 0.0
03 03:35 SW 13 G 39 16.09 Partly Cloudy SCT022 6 2 76% 4 77.67 0.0
03 03:15 SW 24 G 35 16.09 Mostly Cloudy BKN022 6 2 76% 2 77.67 0.0
03 02:55 SW 22 G 35 16.09 Overcast BKN019 OVC024 6 2 76% 2 77.7 0.0
03 02:35 SW 26 G 39 16.09 Mostly Cloudy BKN017 BKN027 BKN055 6 2 76% 2 77.7 0.0
03 02:15 SW 17 G 28 16.09 Partly Cloudy SCT025 6 2 76% 3 77.7 0.0
03 01:55 SW 17 G 37 16.09 Fair CLR 6 2 76% 3 77.72 0.0
03 01:35 SW 22 G 35 16.09 Fair CLR 6 2 76% 2 77.72 0.0
03 01:15 SW 28 G 43 16.09 Partly Cloudy SCT040 6 2 76% 2 77.72 0.0
03 00:55 SW 28 G 41 16.09 Partly Cloudy SCT040 SCT046 6 2 76% 2 77.7 0.0
03 00:37 W 30 G 46 16.09 Partly Cloudy SCT040 SCT046 7 2 71% 3 77.7 0.0
03 00:15 SW 37 G 52 16.09 Fair and Breezy CLR 7 2 71% 3 77.67 0.0
02 23:55 SW 35 G 56 16.09 Partly Cloudy and Breezy SCT042 SCT050 7 2 71% 3 77.67 0.0
02 23:35 SW 35 G 48 16.09 Partly Cloudy and Breezy SCT040 SCT050 7 2 71% 3 77.7 0.0
02 23:15 SW 39 G 54 16.09 Partly Cloudy and Breezy SCT040 SCT048 SCT060 7 2 71% 2 77.72 0.0
02 22:55 W 28 G 48 16.09 Partly Cloudy SCT048 SCT060 7 2 71% 3 77.75 0.0
02 22:35 SW 30 G 56 16.09 Mostly Cloudy BKN050 8 2 66% 4 77.75 0.0
02 22:15 SW 37 G 54 16.09 Mostly Cloudy and Breezy BKN049 8 2 66% 4 77.75 0.0
02 21:55 SW 30 G 46 16.09 Mostly Cloudy SCT038 BKN049 BKN060 8 2 66% 4 77.75 0.0
02 21:35 SW 26 G 44 16.09 Mostly Cloudy SCT036 SCT047 BKN060 8 2 66% 5 77.75 0.0
02 21:15 W 22 G 39 16.09 Fair CLR 8 2 66% 5 77.75 0.0
02 20:55 SW 22 G 43 16.09 Fair CLR 8 2 66% 5 77.72 0.0
02 20:35 SW 26 G 39 16.09 Fair CLR 8 2 66% 5 77.72 0.0
02 20:15 SW 26 G 48 16.09 Fair CLR 8 2 66% 5 77.7 0.0
02 19:55 SW 26 G 46 16.09 Partly Cloudy SCT038 SCT044 SCT055 9 2 62% 6 77.72 0.0
02 19:35 SW 30 G 43 16.09 Partly Cloudy SCT039 SCT044 SCT055 9 2 62% 6 77.72 0.0
02 19:15 SW 28 G 48 16.09 Fair CLR 10 1 54% 7 77.72 0.0
02 18:55 SW 33 G 50 16.09 Partly Cloudy and Breezy SCT047 SCT050 SCT060 11 1 50% 77.72 0.0
02 18:35 SW 35 G 46 16.09 Mostly Cloudy and Breezy BKN050 BKN060 11 0 47% 77.72 0.0
02 18:15 SW 26 G 44 16.09 Mostly Cloudy BKN050 12 0 44% 77.72 0.0
02 17:55 W 17 G 44 16.09 Partly Cloudy SCT050 SCT070 13 0 41% 77.72 0.0
02 17:35 SW 30 G 46 16.09 Partly Cloudy SCT055 SCT065 12 0 44% 77.72 0.0
02 17:15 SW 30 G 57 16.09 Partly Cloudy SCT050 SCT065 11 0 47% 77.72 0.0
02 16:55 SW 19 G 46 16.09 Partly Cloudy SCT050 SCT065 13 0 41% 77.75 0.0
02 16:35 W 19 G 35 16.09 Mostly Cloudy BKN050 BKN065 13 0 41% 77.77 0.0
02 16:15 SW 31 G 44 16.09 Mostly Cloudy BKN049 BKN065 13 0 41% 77.77 0.0
02 15:55 SW 31 G 44 16.09 Partly Cloudy SCT048 SCT065 14 0 39% 77.77 0.0
02 15:35 SW 31 G 48 16.09 Partly Cloudy SCT048 SCT055 13 0 41% 77.77 0.0
02 15:15 SW 37 G 48 16.09 Partly Cloudy and Breezy SCT055 SCT070 12 0 44% 77.77 0.0
02 14:55 SW 26 G 54 16.09 Fair CLR 13 0 41% 77.8 0.0
02 14:35 SW 33 G 61 16.09 Fair and Breezy CLR 13 -1 38% 77.8 0.0
02 14:15 SW 31 G 54 16.09 Fair CLR 13 -1 38% 77.83 0.0
02 13:55 SW 31 G 61 16.09 Fair CLR 13 -1 38% 77.83 0.0
02 13:35 SW 41 G 65 16.09 Fair and Breezy CLR 12 -2 38% 77.8 0.0
02 13:15 SW 39 G 56 16.09 Fair and Breezy CLR 12 0 44% 77.83 0.0
02 12:55 SW 37 G 59 16.09 Fair and Breezy CLR 12 0 44% 77.83 0.0
02 12:35 SW 39 G 61 16.09 Fair and Breezy CLR 11 0 47% 77.85 0.0
02 12:15 S 39 G 63 16.09 Fair and Breezy CLR 11 0 47% 77.85 0.0
02 11:55 SW 41 G 57 16.09 Fair and Breezy CLR 11 1 50% 77.85 0.0
02 11:35 SW 31 G 50 16.09 Fair CLR 11 1 50% 77.88 0.0
02 11:15 SW 35 G 56 16.09 Fair and Breezy CLR 11 0 47% 77.85 0.0
02 10:55 SW 22 G 44 16.09 Fair CLR 10 1 54% 7 77.9 0.0
02 10:35 SW 22 G 43 16.09 Fair CLR 9 0 54% 6 77.9 0.0
02 10:15 SW 31 G 50 16.09 Partly Cloudy SCT028 8 2 66% 4 77.88 0.0
02 09:55 SW 30 G 46 16.09 Partly Cloudy SCT026 SCT031 8 2 66% 4 77.88 0.0
02 09:35 SW 24 G 35 16.09 Partly Cloudy SCT026 SCT031 8 2 66% 5 77.9 0.0
02 09:15 SW 19 G 28 16.09 Partly Cloudy SCT024 8 2 66% 5 77.9 0.0
02 08:55 SW 13 16.09 Partly Cloudy SCT024 7 2 71% 5 77.9 0.0
02 08:35 SW 9 16.09 Partly Cloudy SCT024 6 2 76% 4 77.9 0.0
02 08:15 SW 13 16.09 Partly Cloudy SCT016 SCT021 5 1 76% 2 77.88 0.0
02 07:55 SW 15 16.09 Partly Cloudy SCT018 5 1 76% 2 77.85 0.0
02 07:35 SW 17 G 26 16.09 Partly Cloudy SCT018 5 1 76% 2 77.85 0.0
02 07:15 W 13 G 26 16.09 Fair CLR 5 0 70% 2 77.83 0.0
02 06:55 SW 13 G 28 16.09 Fair CLR 5 1 76% 2 77.83 0.0
02 06:35 SW 15 16.09 Partly Cloudy SCT019 5 1 76% 2 77.83 0.0
02 06:15 SW 15 16.09 Partly Cloudy SCT019 5 1 76% 2 77.83 0.0
02 05:55 SW 13 16.09 Fair CLR 5 1 76% 2 77.83 0.0
02 05:35 W 20 G 26 16.09 Fair CLR 5 0 70% 1 77.83 0.0
02 05:15 SW 17 16.09 Fair CLR 5 0 70% 2 77.83 0.0
02 04:55 SW 20 G 31 16.09 Fair CLR 5 0 70% 1 77.83 0.0
02 04:35 SW 20 G 28 16.09 Fair CLR 5 0 70% 1 77.83 0.0
02 04:15 SW 15 16.09 Mostly Cloudy SCT032 SCT038 BKN050 6 0 66% 3 77.83 0.0
02 03:55 SW 15 16.09 Partly Cloudy SCT034 SCT040 6 0 66% 3 77.85 0.0
02 03:35 SW 15 G 26 16.09 Fair CLR 6 0 66% 3 77.85 0.0
02 03:15 SW 20 G 31 16.09 Fair CLR 6 0 66% 3 77.85 0.0
02 02:55 SW 19 16.09 Fair CLR 6 0 66% 3 77.85 0.0
02 02:35 SW 19 G 30 16.09 Fair CLR 6 0 66% 3 77.88 0.0
02 02:15 W 22 G 33 16.09 Fair CLR 6 0 66% 2 77.88 0.0
02 01:55 SW 20 G 28 16.09 Fair CLR 6 1 71% 3 77.9 0.0
02 01:35 W 17 16.09 Fair CLR 6 1 71% 3 77.9 0.0
02 01:15 SW 15 16.09 Fair CLR 6 1 71% 3 77.9 0.0
02 00:55 W 15 16.09 Fair CLR 6 1 71% 3 77.9 0.0
02 00:35 W 15 16.09 Fair CLR 6 1 71% 3 77.9 0.0
02 00:15 SW 17 16.09 Fair CLR 6 0 66% 3 77.88 0.0
01 23:55 SW 13 16.09 Fair CLR 6 0 66% 4 77.88 0.0
01 23:35 SW 13 16.09 Fair CLR 6 0 66% 4 77.9 0.0
01 23:15 SW 13 16.09 Fair CLR 6 0 66% 4 77.9 0.0
01 22:55 W 13 16.09 Fair CLR 6 1 71% 4 77.9 0.0
01 22:35 W 13 16.09 Fair CLR 7 0 61% 5 77.9 0.0
01 22:15 W 17 16.09 Fair CLR 7 1 66% 4 77.88 0.0
01 21:55 SW 15 16.09 Fair CLR 7 1 66% 5 77.88 0.0
01 21:35 SW 13 16.09 Fair CLR 7 1 66% 5 77.85 0.0
01 21:15 W 13 16.09 Fair CLR 7 1 66% 5 77.85 0.0
01 20:55 W 13 16.09 Fair CLR 7 1 66% 5 77.83 0.0
01 20:35 SW 17 G 28 16.09 Fair CLR 8 1 62% 6 77.83 0.0
01 20:15 W 11 16.09 Fair CLR 8 1 62% 6 77.8 0.0
01 19:55 SW 19 G 30 16.09 Fair CLR 8 1 62% 5 77.8 0.0
01 19:35 SW 20 G 35 16.09 Fair CLR 10 1 54% 8 77.77 0.0
01 19:15 SW 26 G 37 16.09 Fair CLR 10 1 54% 7 77.77 0.0
01 18:55 SW 26 G 37 16.09 Partly Cloudy SCT044 SCT050 11 1 50% 77.77 0.0
01 18:35 SW 19 G 35 16.09 Partly Cloudy SCT042 SCT050 11 1 50% 77.8 0.0
01 18:15 SW 20 G 35 16.09 Fair CLR 11 1 50% 77.8 0.0
01 17:55 SW 26 G 44 16.09 Partly Cloudy SCT050 13 1 44% 77.77 0.0
01 17:35 SW 20 G 33 16.09 Partly Cloudy SCT050 SCT060 13 0 41% 77.8 0.0
01 17:15 SW 19 G 39 16.09 Partly Cloudy SCT050 SCT060 13 0 41% 77.8 0.0
01 16:55 W 20 G 33 16.09 Mostly Cloudy SCT048 BKN060 BKN070 13 1 44% 77.8 0.0
01 16:35 W 13 G 30 16.09 Partly Cloudy SCT060 SCT070 11 1 50% 77.83 0.0
01 16:15 SW 19 G 33 16.09 Mostly Cloudy SCT044 SCT060 BKN070 12 2 51% 77.83 0.0
01 15:55 SW 20 G 33 16.09 Mostly Cloudy SCT044 BKN070 12 2 51% 77.83 0.0
01 15:35 S 26 G 39 16.09 Partly Cloudy SCT044 14 1 41% 77.83 0.0
01 15:15 SW 13 G 35 16.09 Partly Cloudy SCT041 15 2 42% 77.85 0.0
01 14:55 SW 22 G 35 16.09 Partly Cloudy SCT041 SCT048 SCT065 13 2 47% 77.85 0.0
01 14:35 SW 19 G 37 16.09 Thunderstorm in Vicinity SCT041 SCT055 13 2 47% 77.88 0.0
01 14:15 SW 19 G 28 16.09 Mostly Cloudy SCT039 SCT048 BKN065 12 3 54% 77.9 0.0
01 13:55 SW 17 G 30 16.09 Mostly Cloudy SCT034 SCT040 BKN065 12 3 54% 77.9 0.0
01 13:35 SW 13 G 35 16.09 Thunderstorm in Vicinity BKN034 BKN041 BKN055 12 3 54% 77.9 0.0
01 13:15 SW 15 16.09 Overcast SCT031 BKN039 OVC055 12 3 54% 77.9 0.0
01 12:55 SW 19 G 28 16.09 Mostly Cloudy SCT032 BKN041 11 3 58% 77.9 0.0
01 12:35 SW 11 G 28 16.09 Fair CLR 10 3 62% 9 77.9 0.0
01 12:15 W 13 G 26 16.09 Partly Cloudy SCT026 SCT033 11 3 58% 77.93 0.0
01 11:55 SW 13 16.09 Partly Cloudy SCT026 SCT033 12 3 54% 77.93 0.0
01 11:35 SW 17 16.09 Partly Cloudy SCT024 SCT031 11 3 58% 77.93 0.0
01 11:15 W 15 16.09 Partly Cloudy SCT029 10 3 62% 8 77.95 0.0
01 10:55 SW 11 16.09 Partly Cloudy SCT017 SCT022 10 2 58% 9 77.93 0.0
01 10:35 SW 15 16.09 Partly Cloudy SCT016 8 3 71% 6 77.9 0.0
01 10:15 SW 15 16.09 Partly Cloudy SCT012 8 3 71% 6 77.9 0.0
01 09:55 SW 15 16.09 Partly Cloudy SCT007 SCT012 7 3 76% 5 77.9 0.0
01 09:35 SW 11 16.09 Partly Cloudy SCT007 SCT012 7 5 87% 5 77.9 0.0
01 09:15 SW 15 16.09 Partly Cloudy SCT015 6 5 93% 3 77.9 0.0
01 08:55 SW 13 16.09 Mostly Cloudy SCT003 BKN006 5 5 100% 2 77.9 0.0
01 08:35 SW 9 16.09 Overcast BKN001 OVC006 5 5 100% 3 77.9 0.0
01 08:15 SW 9 0.40 Overcast OVC003 5 5 100% 3 77.88 0.0
01 07:55 SW 13 0.24 Overcast OVC001 5 5 100% 2 77.85 0.0
01 07:35 SW 13 0.24 Overcast OVC001 5 5 100% 2 77.85 0.0
01 07:15 SW 17 0.40 Overcast OVC001 4 4 100% 1 77.83 0.0
01 06:55 SW 17 G 31 0.40 Overcast OVC001 4 4 100% 1 77.83 0.0
Date Time (mdt) Wind (kph) Vis. (km) Weather Sky Cond. Air Dwpt Max. Min. Relative Humidity Wind Chill (°C) Heat Index (°C) altimeter (cm) sea level (mb) 1 hr 3 hr 6 hr
6 hour
Temperature (ºC) Pressure Precipitation (cm)